sensor_id;sensor_type;location;lat;lon;timestamp;temperature;humidity
32095;DHT22;18608;53.688;10.748;2022-08-21T00:01:26;15.30;99.90
32095;DHT22;18608;53.688;10.748;2022-08-21T00:03:53;15.30;99.90
32095;DHT22;18608;53.688;10.748;2022-08-21T00:06:20;15.30;99.90
32095;DHT22;18608;53.688;10.748;2022-08-21T00:08:46;15.30;99.90
32095;DHT22;18608;53.688;10.748;2022-08-21T00:11:12;15.30;99.90
32095;DHT22;18608;53.688;10.748;2022-08-21T00:13:38;15.30;99.90
32095;DHT22;18608;53.688;10.748;2022-08-21T00:16:04;15.20;99.90
32095;DHT22;18608;53.688;10.748;2022-08-21T00:18:30;15.20;99.90
32095;DHT22;18608;53.688;10.748;2022-08-21T00:20:55;15.20;99.90
32095;DHT22;18608;53.688;10.748;2022-08-21T00:23:21;15.10;99.90
32095;DHT22;18608;53.688;10.748;2022-08-21T00:25:48;14.90;99.90
32095;DHT22;18608;53.688;10.748;2022-08-21T00:28:14;14.70;99.90
32095;DHT22;18608;53.688;10.748;2022-08-21T00:30:42;14.80;99.90
32095;DHT22;18608;53.688;10.748;2022-08-21T00:33:08;14.80;99.90
32095;DHT22;18608;53.688;10.748;2022-08-21T00:35:37;14.80;99.90
32095;DHT22;18608;53.688;10.748;2022-08-21T00:38:05;14.80;99.90
32095;DHT22;18608;53.688;10.748;2022-08-21T00:40:42;14.80;99.90
32095;DHT22;18608;53.688;10.748;2022-08-21T00:43:11;14.70;99.90
32095;DHT22;18608;53.688;10.748;2022-08-21T00:45:38;14.80;99.90
32095;DHT22;18608;53.688;10.748;2022-08-21T00:48:04;14.70;99.90
32095;DHT22;18608;53.688;10.748;2022-08-21T00:50:33;14.60;99.90
32095;DHT22;18608;53.688;10.748;2022-08-21T00:53:00;14.60;99.90
32095;DHT22;18608;53.688;10.748;2022-08-21T00:55:28;14.60;99.90
32095;DHT22;18608;53.688;10.748;2022-08-21T00:57:57;14.60;99.90
32095;DHT22;18608;53.688;10.748;2022-08-21T01:00:32;14.70;99.90
32095;DHT22;18608;53.688;10.748;2022-08-21T01:03:00;14.70;99.90
32095;DHT22;18608;53.688;10.748;2022-08-21T01:05:26;14.70;99.90
32095;DHT22;18608;53.688;10.748;2022-08-21T01:07:52;14.70;99.90
32095;DHT22;18608;53.688;10.748;2022-08-21T01:10:18;14.70;99.90
32095;DHT22;18608;53.688;10.748;2022-08-21T01:12:44;14.80;99.90
32095;DHT22;18608;53.688;10.748;2022-08-21T01:15:13;14.70;99.90
32095;DHT22;18608;53.688;10.748;2022-08-21T01:17:40;14.60;99.90
32095;DHT22;18608;53.688;10.748;2022-08-21T01:20:08;14.60;99.90
32095;DHT22;18608;53.688;10.748;2022-08-21T01:22:34;14.60;99.90
32095;DHT22;18608;53.688;10.748;2022-08-21T01:24:59;14.60;99.90
32095;DHT22;18608;53.688;10.748;2022-08-21T01:27:25;14.60;99.90
32095;DHT22;18608;53.688;10.748;2022-08-21T01:29:59;14.60;99.90
32095;DHT22;18608;53.688;10.748;2022-08-21T01:32:27;14.60;99.90
32095;DHT22;18608;53.688;10.748;2022-08-21T01:34:53;14.60;99.90
32095;DHT22;18608;53.688;10.748;2022-08-21T01:37:20;14.60;99.90
32095;DHT22;18608;53.688;10.748;2022-08-21T01:39:47;14.60;99.90
32095;DHT22;18608;53.688;10.748;2022-08-21T01:42:13;14.70;99.90
32095;DHT22;18608;53.688;10.748;2022-08-21T01:44:40;14.70;99.90
32095;DHT22;18608;53.688;10.748;2022-08-21T01:47:08;14.70;99.90
32095;DHT22;18608;53.688;10.748;2022-08-21T01:49:35;14.70;99.90
32095;DHT22;18608;53.688;10.748;2022-08-21T01:52:02;14.70;99.90
32095;DHT22;18608;53.688;10.748;2022-08-21T01:54:29;14.60;99.90
32095;DHT22;18608;53.688;10.748;2022-08-21T01:56:55;14.60;99.90
32095;DHT22;18608;53.688;10.748;2022-08-21T01:59:23;14.60;99.90
32095;DHT22;18608;53.688;10.748;2022-08-21T02:01:48;14.60;99.90
32095;DHT22;18608;53.688;10.748;2022-08-21T02:04:15;14.60;99.90
32095;DHT22;18608;53.688;10.748;2022-08-21T02:06:41;14.50;99.90
32095;DHT22;18608;53.688;10.748;2022-08-21T02:09:09;14.40;99.90
32095;DHT22;18608;53.688;10.748;2022-08-21T02:11:36;14.40;99.90
32095;DHT22;18608;53.688;10.748;2022-08-21T02:14:14;14.40;99.90
32095;DHT22;18608;53.688;10.748;2022-08-21T02:16:42;14.30;99.90
32095;DHT22;18608;53.688;10.748;2022-08-21T02:19:08;14.30;99.90
32095;DHT22;18608;53.688;10.748;2022-08-21T02:21:34;14.30;99.90
32095;DHT22;18608;53.688;10.748;2022-08-21T02:24:00;14.40;99.90
32095;DHT22;18608;53.688;10.748;2022-08-21T02:26:26;14.30;99.90
32095;DHT22;18608;53.688;10.748;2022-08-21T02:28:51;14.20;99.90
32095;DHT22;18608;53.688;10.748;2022-08-21T02:31:17;14.20;99.90
32095;DHT22;18608;53.688;10.748;2022-08-21T02:33:43;14.20;99.90
32095;DHT22;18608;53.688;10.748;2022-08-21T02:36:09;14.20;99.90
32095;DHT22;18608;53.688;10.748;2022-08-21T02:38:36;14.10;99.90
32095;DHT22;18608;53.688;10.748;2022-08-21T02:41:09;14.10;99.90
32095;DHT22;18608;53.688;10.748;2022-08-21T02:43:35;14.00;99.90
32095;DHT22;18608;53.688;10.748;2022-08-21T02:46:03;14.00;99.90
32095;DHT22;18608;53.688;10.748;2022-08-21T02:48:31;14.00;99.90
32095;DHT22;18608;53.688;10.748;2022-08-21T02:51:12;13.90;99.90
32095;DHT22;18608;53.688;10.748;2022-08-21T02:53:39;14.00;99.90
32095;DHT22;18608;53.688;10.748;2022-08-21T02:56:08;14.00;99.90
32095;DHT22;18608;53.688;10.748;2022-08-21T02:58:40;13.90;99.90
32095;DHT22;18608;53.688;10.748;2022-08-21T03:01:07;13.90;99.90
32095;DHT22;18608;53.688;10.748;2022-08-21T03:03:36;13.90;99.90
32095;DHT22;18608;53.688;10.748;2022-08-21T03:06:03;13.90;99.90
32095;DHT22;18608;53.688;10.748;2022-08-21T03:08:28;13.90;99.90
32095;DHT22;18608;53.688;10.748;2022-08-21T03:10:54;13.90;99.90
32095;DHT22;18608;53.688;10.748;2022-08-21T03:13:20;14.00;99.90
32095;DHT22;18608;53.688;10.748;2022-08-21T03:15:48;14.00;99.90
32095;DHT22;18608;53.688;10.748;2022-08-21T03:18:14;13.90;99.90
32095;DHT22;18608;53.688;10.748;2022-08-21T03:20:41;13.90;99.90
32095;DHT22;18608;53.688;10.748;2022-08-21T03:23:08;13.80;99.90
32095;DHT22;18608;53.688;10.748;2022-08-21T03:25:34;13.80;99.90
32095;DHT22;18608;53.688;10.748;2022-08-21T03:28:01;13.80;99.90
32095;DHT22;18608;53.688;10.748;2022-08-21T03:30:27;13.80;99.90
32095;DHT22;18608;53.688;10.748;2022-08-21T03:32:53;13.70;99.90
32095;DHT22;18608;53.688;10.748;2022-08-21T03:35:20;13.70;99.90
32095;DHT22;18608;53.688;10.748;2022-08-21T03:37:46;13.60;99.90
32095;DHT22;18608;53.688;10.748;2022-08-21T03:40:14;13.60;99.90
32095;DHT22;18608;53.688;10.748;2022-08-21T03:42:39;13.60;99.90
32095;DHT22;18608;53.688;10.748;2022-08-21T03:45:06;13.60;99.90
32095;DHT22;18608;53.688;10.748;2022-08-21T03:47:32;13.60;99.90
32095;DHT22;18608;53.688;10.748;2022-08-21T03:49:57;13.60;99.90
32095;DHT22;18608;53.688;10.748;2022-08-21T03:52:23;13.60;99.90
32095;DHT22;18608;53.688;10.748;2022-08-21T03:54:48;13.60;99.90
32095;DHT22;18608;53.688;10.748;2022-08-21T03:57:15;13.60;99.90
32095;DHT22;18608;53.688;10.748;2022-08-21T03:59:41;13.60;99.90
32095;DHT22;18608;53.688;10.748;2022-08-21T04:02:09;13.50;99.90
32095;DHT22;18608;53.688;10.748;2022-08-21T04:04:35;13.40;99.90
32095;DHT22;18608;53.688;10.748;2022-08-21T04:07:02;13.50;99.90
32095;DHT22;18608;53.688;10.748;2022-08-21T04:09:29;13.50;99.90
32095;DHT22;18608;53.688;10.748;2022-08-21T04:11:56;13.50;99.90
32095;DHT22;18608;53.688;10.748;2022-08-21T04:14:22;13.40;99.90
32095;DHT22;18608;53.688;10.748;2022-08-21T04:16:48;13.40;99.90
32095;DHT22;18608;53.688;10.748;2022-08-21T04:19:13;13.40;99.90
32095;DHT22;18608;53.688;10.748;2022-08-21T04:21:40;13.40;99.90
32095;DHT22;18608;53.688;10.748;2022-08-21T04:24:07;13.40;99.90
32095;DHT22;18608;53.688;10.748;2022-08-21T04:26:34;13.40;99.90
32095;DHT22;18608;53.688;10.748;2022-08-21T04:29:00;13.50;99.90
32095;DHT22;18608;53.688;10.748;2022-08-21T04:31:26;13.40;99.90
32095;DHT22;18608;53.688;10.748;2022-08-21T04:33:53;13.50;99.90
32095;DHT22;18608;53.688;10.748;2022-08-21T04:36:18;13.50;99.90
32095;DHT22;18608;53.688;10.748;2022-08-21T04:38:44;13.50;99.90
32095;DHT22;18608;53.688;10.748;2022-08-21T04:41:10;13.50;99.90
32095;DHT22;18608;53.688;10.748;2022-08-21T04:43:35;13.50;99.90
32095;DHT22;18608;53.688;10.748;2022-08-21T04:46:01;13.40;99.90
32095;DHT22;18608;53.688;10.748;2022-08-21T04:48:27;13.40;99.90
32095;DHT22;18608;53.688;10.748;2022-08-21T04:51:33;13.40;99.90
32095;DHT22;18608;53.688;10.748;2022-08-21T04:54:01;13.50;99.90
32095;DHT22;18608;53.688;10.748;2022-08-21T04:56:46;13.50;99.90
32095;DHT22;18608;53.688;10.748;2022-08-21T04:59:26;13.20;99.90
32095;DHT22;18608;53.688;10.748;2022-08-21T05:01:53;13.10;99.90
32095;DHT22;18608;53.688;10.748;2022-08-21T05:04:28;13.30;99.90
32095;DHT22;18608;53.688;10.748;2022-08-21T05:06:57;13.50;99.90
32095;DHT22;18608;53.688;10.748;2022-08-21T05:09:25;13.70;99.90
32095;DHT22;18608;53.688;10.748;2022-08-21T05:11:52;14.00;99.90
32095;DHT22;18608;53.688;10.748;2022-08-21T05:14:18;14.30;99.90
32095;DHT22;18608;53.688;10.748;2022-08-21T05:16:44;14.60;99.90
32095;DHT22;18608;53.688;10.748;2022-08-21T05:19:10;14.80;99.90
32095;DHT22;18608;53.688;10.748;2022-08-21T05:21:39;14.80;99.90
32095;DHT22;18608;53.688;10.748;2022-08-21T05:24:05;14.80;99.90
32095;DHT22;18608;53.688;10.748;2022-08-21T05:26:31;14.90;99.90
32095;DHT22;18608;53.688;10.748;2022-08-21T05:28:57;15.10;99.90
32095;DHT22;18608;53.688;10.748;2022-08-21T05:31:22;15.30;99.90
32095;DHT22;18608;53.688;10.748;2022-08-21T05:33:48;15.50;99.90
32095;DHT22;18608;53.688;10.748;2022-08-21T05:36:13;15.70;99.90
32095;DHT22;18608;53.688;10.748;2022-08-21T05:38:39;15.70;99.90
32095;DHT22;18608;53.688;10.748;2022-08-21T05:41:05;15.80;99.90
32095;DHT22;18608;53.688;10.748;2022-08-21T05:43:31;15.70;99.90
32095;DHT22;18608;53.688;10.748;2022-08-21T05:46:04;15.80;99.90
32095;DHT22;18608;53.688;10.748;2022-08-21T05:48:30;15.80;99.90
32095;DHT22;18608;53.688;10.748;2022-08-21T05:50:56;16.00;99.90
32095;DHT22;18608;53.688;10.748;2022-08-21T05:53:23;16.10;99.90
32095;DHT22;18608;53.688;10.748;2022-08-21T05:55:50;16.40;99.90
32095;DHT22;18608;53.688;10.748;2022-08-21T05:58:18;16.30;99.90
32095;DHT22;18608;53.688;10.748;2022-08-21T06:00:46;16.30;99.90
32095;DHT22;18608;53.688;10.748;2022-08-21T06:03:15;16.30;99.90
32095;DHT22;18608;53.688;10.748;2022-08-21T06:05:42;16.60;99.90
32095;DHT22;18608;53.688;10.748;2022-08-21T06:08:07;16.80;99.90
32095;DHT22;18608;53.688;10.748;2022-08-21T06:10:33;17.20;99.90
32095;DHT22;18608;53.688;10.748;2022-08-21T06:12:59;17.50;99.90
32095;DHT22;18608;53.688;10.748;2022-08-21T06:15:24;17.50;99.90
32095;DHT22;18608;53.688;10.748;2022-08-21T06:17:51;17.40;99.90
32095;DHT22;18608;53.688;10.748;2022-08-21T06:20:17;17.10;99.90
32095;DHT22;18608;53.688;10.748;2022-08-21T06:22:42;16.90;99.90
32095;DHT22;18608;53.688;10.748;2022-08-21T06:25:08;17.00;99.90
32095;DHT22;18608;53.688;10.748;2022-08-21T06:27:34;17.30;99.90
32095;DHT22;18608;53.688;10.748;2022-08-21T06:30:00;16.90;99.90
32095;DHT22;18608;53.688;10.748;2022-08-21T06:32:26;16.90;99.90
32095;DHT22;18608;53.688;10.748;2022-08-21T06:34:51;17.30;99.90
32095;DHT22;18608;53.688;10.748;2022-08-21T06:37:17;17.80;99.90
32095;DHT22;18608;53.688;10.748;2022-08-21T06:39:42;18.30;99.90
32095;DHT22;18608;53.688;10.748;2022-08-21T06:42:14;18.40;99.90
32095;DHT22;18608;53.688;10.748;2022-08-21T06:44:39;18.30;99.90
32095;DHT22;18608;53.688;10.748;2022-08-21T06:47:05;18.30;99.90
32095;DHT22;18608;53.688;10.748;2022-08-21T06:49:30;18.60;99.90
32095;DHT22;18608;53.688;10.748;2022-08-21T06:51:56;19.00;99.90
32095;DHT22;18608;53.688;10.748;2022-08-21T06:54:21;19.50;94.00
32095;DHT22;18608;53.688;10.748;2022-08-21T06:56:47;19.80;62.90
32095;DHT22;18608;53.688;10.748;2022-08-21T06:59:13;19.90;49.20
32095;DHT22;18608;53.688;10.748;2022-08-21T07:01:38;20.10;9.80
32095;DHT22;18608;53.688;10.748;2022-08-21T07:08:56;20.90;1.00
32095;DHT22;18608;53.688;10.748;2022-08-21T07:11:23;21.00;1.00
32095;DHT22;18608;53.688;10.748;2022-08-21T07:13:50;21.10;1.00
32095;DHT22;18608;53.688;10.748;2022-08-21T07:23:45;22.40;1.00
32095;DHT22;18608;53.688;10.748;2022-08-21T07:26:13;22.40;1.00
32095;DHT22;18608;53.688;10.748;2022-08-21T07:28:38;22.70;1.00
32095;DHT22;18608;53.688;10.748;2022-08-21T07:33:33;22.30;1.00
32095;DHT22;18608;53.688;10.748;2022-08-21T07:35:59;22.50;99.90
32095;DHT22;18608;53.688;10.748;2022-08-21T07:38:25;22.60;99.90
32095;DHT22;18608;53.688;10.748;2022-08-21T07:40:52;22.80;99.90
32095;DHT22;18608;53.688;10.748;2022-08-21T07:45:47;23.10;1.00
32095;DHT22;18608;53.688;10.748;2022-08-21T07:50:41;23.40;99.90
32095;DHT22;18608;53.688;10.748;2022-08-21T07:53:07;24.20;1.00
32095;DHT22;18608;53.688;10.748;2022-08-21T07:55:33;24.30;99.90
32095;DHT22;18608;53.688;10.748;2022-08-21T08:00:27;23.80;1.00
32095;DHT22;18608;53.688;10.748;2022-08-21T08:02:54;23.20;99.90
32095;DHT22;18608;53.688;10.748;2022-08-21T08:05:23;23.10;99.90
32095;DHT22;18608;53.688;10.748;2022-08-21T08:07:49;22.60;58.20
32095;DHT22;18608;53.688;10.748;2022-08-21T08:10:16;22.90;48.40
32095;DHT22;18608;53.688;10.748;2022-08-21T08:12:43;23.10;99.90
32095;DHT22;18608;53.688;10.748;2022-08-21T08:15:12;23.60;99.90
32095;DHT22;18608;53.688;10.748;2022-08-21T08:20:09;24.50;1.00
32095;DHT22;18608;53.688;10.748;2022-08-21T08:22:37;24.20;1.00
32095;DHT22;18608;53.688;10.748;2022-08-21T08:25:03;24.00;1.00
32095;DHT22;18608;53.688;10.748;2022-08-21T08:32:22;23.80;1.00
32095;DHT22;18608;53.688;10.748;2022-08-21T08:34:49;23.90;99.90
32095;DHT22;18608;53.688;10.748;2022-08-21T08:37:17;24.40;99.90
32095;DHT22;18608;53.688;10.748;2022-08-21T08:44:36;24.90;99.90
32095;DHT22;18608;53.688;10.748;2022-08-21T08:47:03;24.80;99.90
32095;DHT22;18608;53.688;10.748;2022-08-21T08:49:34;24.40;99.90
32095;DHT22;18608;53.688;10.748;2022-08-21T08:54:44;24.50;99.90
32095;DHT22;18608;53.688;10.748;2022-08-21T08:57:19;24.80;1.00
32095;DHT22;18608;53.688;10.748;2022-08-21T08:59:49;24.80;1.00
32095;DHT22;18608;53.688;10.748;2022-08-21T09:02:16;24.70;99.90
32095;DHT22;18608;53.688;10.748;2022-08-21T09:04:43;24.70;99.90
32095;DHT22;18608;53.688;10.748;2022-08-21T09:07:16;24.90;99.90
32095;DHT22;18608;53.688;10.748;2022-08-21T09:20:38;24.30;1.00
32095;DHT22;18608;53.688;10.748;2022-08-21T09:28:14;25.10;1.00
32095;DHT22;18608;53.688;10.748;2022-08-21T09:33:07;25.20;99.90
32095;DHT22;18608;53.688;10.748;2022-08-21T09:35:34;25.20;99.90
32095;DHT22;18608;53.688;10.748;2022-08-21T09:38:05;24.60;99.90
32095;DHT22;18608;53.688;10.748;2022-08-21T09:45:32;25.00;1.00
32095;DHT22;18608;53.688;10.748;2022-08-21T09:48:17;25.50;99.90
32095;DHT22;18608;53.688;10.748;2022-08-21T09:50:43;25.90;1.00
32095;DHT22;18608;53.688;10.748;2022-08-21T09:53:20;26.40;1.00
32095;DHT22;18608;53.688;10.748;2022-08-21T09:55:57;26.30;99.90
32095;DHT22;18608;53.688;10.748;2022-08-21T09:58:46;25.80;1.00
32095;DHT22;18608;53.688;10.748;2022-08-21T10:01:15;25.70;1.00
32095;DHT22;18608;53.688;10.748;2022-08-21T10:06:08;25.10;99.90
32095;DHT22;18608;53.688;10.748;2022-08-21T10:08:37;25.60;99.90
32095;DHT22;18608;53.688;10.748;2022-08-21T10:11:07;25.50;99.90
32095;DHT22;18608;53.688;10.748;2022-08-21T10:13:55;25.20;1.00
32095;DHT22;18608;53.688;10.748;2022-08-21T10:22:20;25.70;99.90
32095;DHT22;18608;53.688;10.748;2022-08-21T10:24:52;25.70;99.90
32095;DHT22;18608;53.688;10.748;2022-08-21T10:27:47;25.80;99.90
32095;DHT22;18608;53.688;10.748;2022-08-21T10:30:21;25.80;1.00
32095;DHT22;18608;53.688;10.748;2022-08-21T10:35:39;26.20;1.00
32095;DHT22;18608;53.688;10.748;2022-08-21T10:38:45;26.60;1.00
32095;DHT22;18608;53.688;10.748;2022-08-21T10:46:50;26.10;83.80
32095;DHT22;18608;53.688;10.748;2022-08-21T10:49:50;25.40;1.00
32095;DHT22;18608;53.688;10.748;2022-08-21T10:52:41;25.70;1.00
32095;DHT22;18608;53.688;10.748;2022-08-21T10:55:19;26.10;1.00
32095;DHT22;18608;53.688;10.748;2022-08-21T10:57:57;26.00;1.00
32095;DHT22;18608;53.688;10.748;2022-08-21T11:00:30;26.40;99.90
32095;DHT22;18608;53.688;10.748;2022-08-21T11:03:05;25.60;1.00
32095;DHT22;18608;53.688;10.748;2022-08-21T11:05:58;25.60;99.90
32095;DHT22;18608;53.688;10.748;2022-08-21T11:08:31;25.50;1.00
32095;DHT22;18608;53.688;10.748;2022-08-21T11:13:46;26.30;5.10
32095;DHT22;18608;53.688;10.748;2022-08-21T11:24:34;25.60;1.00
32095;DHT22;18608;53.688;10.748;2022-08-21T11:27:09;25.00;1.00
32095;DHT22;18608;53.688;10.748;2022-08-21T11:29:41;24.90;99.90
32095;DHT22;18608;53.688;10.748;2022-08-21T11:43:48;25.50;99.90
32095;DHT22;18608;53.688;10.748;2022-08-21T11:55:03;25.30;10.60
32095;DHT22;18608;53.688;10.748;2022-08-21T12:00:29;24.60;99.90
32095;DHT22;18608;53.688;10.748;2022-08-21T12:02:59;24.20;99.90
32095;DHT22;18608;53.688;10.748;2022-08-21T12:05:39;23.90;1.00
32095;DHT22;18608;53.688;10.748;2022-08-21T12:08:14;23.70;1.00
32095;DHT22;18608;53.688;10.748;2022-08-21T12:10:46;24.00;1.00
32095;DHT22;18608;53.688;10.748;2022-08-21T12:13:30;24.20;99.90
32095;DHT22;18608;53.688;10.748;2022-08-21T12:18:32;24.30;1.00
32095;DHT22;18608;53.688;10.748;2022-08-21T12:21:17;24.40;99.90
32095;DHT22;18608;53.688;10.748;2022-08-21T12:34:37;24.80;1.00
32095;DHT22;18608;53.688;10.748;2022-08-21T12:42:45;25.30;99.90
32095;DHT22;18608;53.688;10.748;2022-08-21T12:45:30;25.50;99.90
32095;DHT22;18608;53.688;10.748;2022-08-21T12:51:10;25.00;99.90
32095;DHT22;18608;53.688;10.748;2022-08-21T12:53:48;24.90;99.90
32095;DHT22;18608;53.688;10.748;2022-08-21T12:56:18;24.70;99.90
32095;DHT22;18608;53.688;10.748;2022-08-21T12:58:47;24.50;1.00
32095;DHT22;18608;53.688;10.748;2022-08-21T13:01:47;24.70;99.90
32095;DHT22;18608;53.688;10.748;2022-08-21T13:04:19;25.00;1.00
32095;DHT22;18608;53.688;10.748;2022-08-21T13:06:51;24.50;99.90
32095;DHT22;18608;53.688;10.748;2022-08-21T13:09:22;24.50;1.00
32095;DHT22;18608;53.688;10.748;2022-08-21T13:11:49;24.70;1.00
32095;DHT22;18608;53.688;10.748;2022-08-21T13:14:31;24.70;9.60
32095;DHT22;18608;53.688;10.748;2022-08-21T13:16:59;24.30;99.90
32095;DHT22;18608;53.688;10.748;2022-08-21T13:19:26;24.30;99.90
32095;DHT22;18608;53.688;10.748;2022-08-21T13:21:52;24.70;1.00
32095;DHT22;18608;53.688;10.748;2022-08-21T13:24:34;24.90;99.90
32095;DHT22;18608;53.688;10.748;2022-08-21T13:27:00;24.80;1.00
32095;DHT22;18608;53.688;10.748;2022-08-21T13:29:32;25.10;1.00
32095;DHT22;18608;53.688;10.748;2022-08-21T13:32:02;25.40;1.00
32095;DHT22;18608;53.688;10.748;2022-08-21T13:34:34;25.30;99.90
32095;DHT22;18608;53.688;10.748;2022-08-21T13:37:06;25.10;99.90
32095;DHT22;18608;53.688;10.748;2022-08-21T13:39:33;25.30;99.90
32095;DHT22;18608;53.688;10.748;2022-08-21T13:42:02;25.50;99.90
32095;DHT22;18608;53.688;10.748;2022-08-21T13:44:34;25.40;99.90
32095;DHT22;18608;53.688;10.748;2022-08-21T13:47:03;25.40;99.90
32095;DHT22;18608;53.688;10.748;2022-08-21T13:49:38;25.00;99.90
32095;DHT22;18608;53.688;10.748;2022-08-21T13:52:05;25.10;1.00
32095;DHT22;18608;53.688;10.748;2022-08-21T13:54:43;25.40;99.90
32095;DHT22;18608;53.688;10.748;2022-08-21T13:57:18;25.40;1.00
32095;DHT22;18608;53.688;10.748;2022-08-21T13:59:44;25.30;1.00
32095;DHT22;18608;53.688;10.748;2022-08-21T14:04:52;25.30;1.00
32095;DHT22;18608;53.688;10.748;2022-08-21T14:07:40;25.50;1.00
32095;DHT22;18608;53.688;10.748;2022-08-21T14:10:07;25.60;1.00
32095;DHT22;18608;53.688;10.748;2022-08-21T14:12:43;25.30;1.00
32095;DHT22;18608;53.688;10.748;2022-08-21T14:15:15;25.20;99.90
32095;DHT22;18608;53.688;10.748;2022-08-21T14:17:42;25.30;1.00
32095;DHT22;18608;53.688;10.748;2022-08-21T14:20:25;25.80;1.00
32095;DHT22;18608;53.688;10.748;2022-08-21T14:22:50;26.00;99.90
32095;DHT22;18608;53.688;10.748;2022-08-21T14:27:53;25.70;99.90
32095;DHT22;18608;53.688;10.748;2022-08-21T14:30:30;25.70;99.90
32095;DHT22;18608;53.688;10.748;2022-08-21T14:32:56;25.50;99.90
32095;DHT22;18608;53.688;10.748;2022-08-21T14:35:22;25.20;99.90
32095;DHT22;18608;53.688;10.748;2022-08-21T14:37:49;24.70;99.90
32095;DHT22;18608;53.688;10.748;2022-08-21T14:40:19;24.60;99.90
32095;DHT22;18608;53.688;10.748;2022-08-21T14:42:45;25.00;99.90
32095;DHT22;18608;53.688;10.748;2022-08-21T14:47:44;25.90;99.90
32095;DHT22;18608;53.688;10.748;2022-08-21T14:50:12;25.80;99.90
32095;DHT22;18608;53.688;10.748;2022-08-21T14:52:38;25.50;99.90
32095;DHT22;18608;53.688;10.748;2022-08-21T14:55:06;25.50;99.90
32095;DHT22;18608;53.688;10.748;2022-08-21T14:57:32;25.70;99.90
32095;DHT22;18608;53.688;10.748;2022-08-21T14:59:59;25.40;99.90
32095;DHT22;18608;53.688;10.748;2022-08-21T15:02:25;25.40;99.90
32095;DHT22;18608;53.688;10.748;2022-08-21T15:04:51;25.00;99.90
32095;DHT22;18608;53.688;10.748;2022-08-21T15:07:16;25.10;1.00
32095;DHT22;18608;53.688;10.748;2022-08-21T15:09:42;25.10;1.00
32095;DHT22;18608;53.688;10.748;2022-08-21T15:12:07;25.00;1.00
32095;DHT22;18608;53.688;10.748;2022-08-21T15:14:36;24.60;1.00
32095;DHT22;18608;53.688;10.748;2022-08-21T15:17:04;24.40;1.00
32095;DHT22;18608;53.688;10.748;2022-08-21T15:19:31;24.30;43.90
32095;DHT22;18608;53.688;10.748;2022-08-21T15:21:57;24.30;29.50
32095;DHT22;18608;53.688;10.748;2022-08-21T15:24:23;24.50;34.50
32095;DHT22;18608;53.688;10.748;2022-08-21T15:26:49;24.80;1.00
32095;DHT22;18608;53.688;10.748;2022-08-21T15:29:15;24.70;1.00
32095;DHT22;18608;53.688;10.748;2022-08-21T15:31:55;24.70;1.00
32095;DHT22;18608;53.688;10.748;2022-08-21T15:34:22;24.50;14.70
32095;DHT22;18608;53.688;10.748;2022-08-21T15:36:48;24.20;99.90
32095;DHT22;18608;53.688;10.748;2022-08-21T15:39:14;24.00;99.90
32095;DHT22;18608;53.688;10.748;2022-08-21T15:41:40;24.00;1.00
32095;DHT22;18608;53.688;10.748;2022-08-21T15:44:05;24.00;1.00
32095;DHT22;18608;53.688;10.748;2022-08-21T15:46:31;24.00;99.90
32095;DHT22;18608;53.688;10.748;2022-08-21T15:48:57;24.30;99.90
32095;DHT22;18608;53.688;10.748;2022-08-21T15:51:22;24.50;99.90
32095;DHT22;18608;53.688;10.748;2022-08-21T15:53:48;24.70;1.00
32095;DHT22;18608;53.688;10.748;2022-08-21T15:58:45;24.80;1.00
32095;DHT22;18608;53.688;10.748;2022-08-21T16:01:11;24.70;1.00
32095;DHT22;18608;53.688;10.748;2022-08-21T16:03:36;24.50;99.90
32095;DHT22;18608;53.688;10.748;2022-08-21T16:06:02;24.50;99.90
32095;DHT22;18608;53.688;10.748;2022-08-21T16:08:27;24.30;99.90
32095;DHT22;18608;53.688;10.748;2022-08-21T16:10:54;24.20;99.90
32095;DHT22;18608;53.688;10.748;2022-08-21T16:13:27;24.10;1.00
32095;DHT22;18608;53.688;10.748;2022-08-21T16:15:54;24.10;1.00
32095;DHT22;18608;53.688;10.748;2022-08-21T16:18:21;24.10;1.00
32095;DHT22;18608;53.688;10.748;2022-08-21T16:20:48;24.30;1.00
32095;DHT22;18608;53.688;10.748;2022-08-21T16:23:13;24.60;99.90
32095;DHT22;18608;53.688;10.748;2022-08-21T16:25:40;24.80;99.90
32095;DHT22;18608;53.688;10.748;2022-08-21T16:28:08;25.00;1.00
32095;DHT22;18608;53.688;10.748;2022-08-21T16:30:34;25.00;1.00
32095;DHT22;18608;53.688;10.748;2022-08-21T16:33:01;25.10;12.70
32095;DHT22;18608;53.688;10.748;2022-08-21T16:35:28;24.90;1.00
32095;DHT22;18608;53.688;10.748;2022-08-21T16:37:54;24.80;1.00
32095;DHT22;18608;53.688;10.748;2022-08-21T16:40:21;24.70;1.00
32095;DHT22;18608;53.688;10.748;2022-08-21T16:42:51;24.60;1.00
32095;DHT22;18608;53.688;10.748;2022-08-21T16:45:18;24.60;32.70
32095;DHT22;18608;53.688;10.748;2022-08-21T16:47:45;24.60;1.00
32095;DHT22;18608;53.688;10.748;2022-08-21T16:50:15;24.60;68.50
32095;DHT22;18608;53.688;10.748;2022-08-21T16:52:41;24.70;1.00
32095;DHT22;18608;53.688;10.748;2022-08-21T16:55:06;24.70;1.00
32095;DHT22;18608;53.688;10.748;2022-08-21T16:57:32;24.70;1.00
32095;DHT22;18608;53.688;10.748;2022-08-21T16:59:58;24.60;1.00
32095;DHT22;18608;53.688;10.748;2022-08-21T17:04:53;24.50;1.00
32095;DHT22;18608;53.688;10.748;2022-08-21T17:07:18;24.50;1.00
32095;DHT22;18608;53.688;10.748;2022-08-21T17:09:44;24.40;1.00
32095;DHT22;18608;53.688;10.748;2022-08-21T17:12:10;24.30;1.00
32095;DHT22;18608;53.688;10.748;2022-08-21T17:14:36;24.30;1.00
32095;DHT22;18608;53.688;10.748;2022-08-21T17:17:03;24.30;3.20
32095;DHT22;18608;53.688;10.748;2022-08-21T17:19:31;24.20;20.70
32095;DHT22;18608;53.688;10.748;2022-08-21T17:21:58;24.20;99.90
32095;DHT22;18608;53.688;10.748;2022-08-21T17:24:23;24.10;99.90
32095;DHT22;18608;53.688;10.748;2022-08-21T17:26:52;24.20;99.90
32095;DHT22;18608;53.688;10.748;2022-08-21T17:29:24;24.30;99.90
32095;DHT22;18608;53.688;10.748;2022-08-21T17:31:52;24.10;99.90
32095;DHT22;18608;53.688;10.748;2022-08-21T17:34:17;23.90;99.90
32095;DHT22;18608;53.688;10.748;2022-08-21T17:36:43;23.70;99.90
32095;DHT22;18608;53.688;10.748;2022-08-21T17:39:09;23.60;1.00
32095;DHT22;18608;53.688;10.748;2022-08-21T17:41:35;23.50;1.00
32095;DHT22;18608;53.688;10.748;2022-08-21T17:44:06;23.40;99.90
32095;DHT22;18608;53.688;10.748;2022-08-21T17:46:33;23.30;99.90
32095;DHT22;18608;53.688;10.748;2022-08-21T17:48:59;23.30;44.80
32095;DHT22;18608;53.688;10.748;2022-08-21T17:51:25;23.30;1.00
32095;DHT22;18608;53.688;10.748;2022-08-21T17:53:51;23.30;50.20
32095;DHT22;18608;53.688;10.748;2022-08-21T17:56:18;23.10;99.90